sensor_id;sensor_type;location;lat;lon;timestamp;temperature;humidity
18083;DHT22;9168;51.194;6.840;2022-09-27T00:02:05;11.60;99.90
18083;DHT22;9168;51.194;6.840;2022-09-27T00:04:33;11.60;99.90
18083;DHT22;9168;51.194;6.840;2022-09-27T00:07:00;11.60;99.90
18083;DHT22;9168;51.194;6.840;2022-09-27T00:09:27;11.60;99.90
18083;DHT22;9168;51.194;6.840;2022-09-27T00:11:54;11.60;99.90
18083;DHT22;9168;51.194;6.840;2022-09-27T00:14:21;11.60;99.90
18083;DHT22;9168;51.194;6.840;2022-09-27T00:16:48;11.60;99.90
18083;DHT22;9168;51.194;6.840;2022-09-27T00:19:17;11.60;99.90
18083;DHT22;9168;51.194;6.840;2022-09-27T00:21:45;11.60;99.90
18083;DHT22;9168;51.194;6.840;2022-09-27T00:24:13;11.60;99.90
18083;DHT22;9168;51.194;6.840;2022-09-27T00:26:40;11.60;99.90
18083;DHT22;9168;51.194;6.840;2022-09-27T00:29:07;11.50;99.90
18083;DHT22;9168;51.194;6.840;2022-09-27T00:31:35;11.50;99.90
18083;DHT22;9168;51.194;6.840;2022-09-27T00:34:03;11.50;99.90
18083;DHT22;9168;51.194;6.840;2022-09-27T00:36:31;11.50;99.90
18083;DHT22;9168;51.194;6.840;2022-09-27T00:39:00;11.50;99.90
18083;DHT22;9168;51.194;6.840;2022-09-27T00:41:32;11.50;99.90
18083;DHT22;9168;51.194;6.840;2022-09-27T00:44:01;11.50;99.90
18083;DHT22;9168;51.194;6.840;2022-09-27T00:46:32;11.50;99.90
18083;DHT22;9168;51.194;6.840;2022-09-27T00:49:05;11.50;99.90
18083;DHT22;9168;51.194;6.840;2022-09-27T00:51:34;11.50;99.90
18083;DHT22;9168;51.194;6.840;2022-09-27T00:54:06;11.50;99.90
18083;DHT22;9168;51.194;6.840;2022-09-27T00:56:36;11.50;99.90
18083;DHT22;9168;51.194;6.840;2022-09-27T00:59:07;11.50;99.90
18083;DHT22;9168;51.194;6.840;2022-09-27T01:01:35;11.50;99.90
18083;DHT22;9168;51.194;6.840;2022-09-27T01:04:06;11.50;99.90
18083;DHT22;9168;51.194;6.840;2022-09-27T01:06:33;11.50;99.90
18083;DHT22;9168;51.194;6.840;2022-09-27T01:09:00;11.40;99.90
18083;DHT22;9168;51.194;6.840;2022-09-27T01:11:42;11.50;99.90
18083;DHT22;9168;51.194;6.840;2022-09-27T01:14:24;11.40;99.90
18083;DHT22;9168;51.194;6.840;2022-09-27T01:16:59;11.50;99.90
18083;DHT22;9168;51.194;6.840;2022-09-27T01:19:49;11.50;99.90
18083;DHT22;9168;51.194;6.840;2022-09-27T01:22:24;11.50;99.90
18083;DHT22;9168;51.194;6.840;2022-09-27T01:25:07;11.50;99.90
18083;DHT22;9168;51.194;6.840;2022-09-27T01:28:10;11.50;99.90
18083;DHT22;9168;51.194;6.840;2022-09-27T01:30:48;11.50;99.90
18083;DHT22;9168;51.194;6.840;2022-09-27T01:33:35;11.40;99.90
18083;DHT22;9168;51.194;6.840;2022-09-27T01:36:10;11.40;99.90
18083;DHT22;9168;51.194;6.840;2022-09-27T01:38:46;11.40;99.90
18083;DHT22;9168;51.194;6.840;2022-09-27T01:41:25;11.40;99.90
18083;DHT22;9168;51.194;6.840;2022-09-27T01:43:58;11.40;99.90
18083;DHT22;9168;51.194;6.840;2022-09-27T01:46:31;11.40;99.90
18083;DHT22;9168;51.194;6.840;2022-09-27T01:49:03;11.40;99.90
18083;DHT22;9168;51.194;6.840;2022-09-27T01:51:34;11.40;99.90
18083;DHT22;9168;51.194;6.840;2022-09-27T01:54:04;11.40;99.90
18083;DHT22;9168;51.194;6.840;2022-09-27T01:56:36;11.40;99.90
18083;DHT22;9168;51.194;6.840;2022-09-27T01:59:06;11.50;99.90
18083;DHT22;9168;51.194;6.840;2022-09-27T02:01:38;11.50;99.90
18083;DHT22;9168;51.194;6.840;2022-09-27T02:04:09;11.40;99.90
18083;DHT22;9168;51.194;6.840;2022-09-27T02:06:41;11.50;99.90
18083;DHT22;9168;51.194;6.840;2022-09-27T02:09:11;11.50;99.90
18083;DHT22;9168;51.194;6.840;2022-09-27T02:11:42;11.50;99.90
18083;DHT22;9168;51.194;6.840;2022-09-27T02:14:16;11.50;99.90
18083;DHT22;9168;51.194;6.840;2022-09-27T02:16:49;11.50;99.90
18083;DHT22;9168;51.194;6.840;2022-09-27T02:19:26;11.40;99.90
18083;DHT22;9168;51.194;6.840;2022-09-27T02:22:09;11.40;99.90
18083;DHT22;9168;51.194;6.840;2022-09-27T02:24:42;11.40;99.90
18083;DHT22;9168;51.194;6.840;2022-09-27T02:27:14;11.40;99.90
18083;DHT22;9168;51.194;6.840;2022-09-27T02:29:46;11.30;99.90
18083;DHT22;9168;51.194;6.840;2022-09-27T02:32:17;11.30;99.90
18083;DHT22;9168;51.194;6.840;2022-09-27T02:34:44;11.30;99.90
18083;DHT22;9168;51.194;6.840;2022-09-27T02:37:12;11.30;99.90
18083;DHT22;9168;51.194;6.840;2022-09-27T02:39:40;11.30;99.90
18083;DHT22;9168;51.194;6.840;2022-09-27T02:42:07;11.30;99.90
18083;DHT22;9168;51.194;6.840;2022-09-27T02:44:34;11.30;99.90
18083;DHT22;9168;51.194;6.840;2022-09-27T02:47:25;11.30;99.90
18083;DHT22;9168;51.194;6.840;2022-09-27T02:50:02;11.30;99.90
18083;DHT22;9168;51.194;6.840;2022-09-27T02:52:41;11.30;99.90
18083;DHT22;9168;51.194;6.840;2022-09-27T02:55:13;11.20;99.90
18083;DHT22;9168;51.194;6.840;2022-09-27T02:57:53;11.20;99.90
18083;DHT22;9168;51.194;6.840;2022-09-27T03:00:24;11.30;99.90
18083;DHT22;9168;51.194;6.840;2022-09-27T03:03:02;11.30;99.90
18083;DHT22;9168;51.194;6.840;2022-09-27T03:05:32;11.20;99.90
18083;DHT22;9168;51.194;6.840;2022-09-27T03:08:01;11.20;99.90
18083;DHT22;9168;51.194;6.840;2022-09-27T03:10:29;11.20;99.90
18083;DHT22;9168;51.194;6.840;2022-09-27T03:12:56;11.20;99.90
18083;DHT22;9168;51.194;6.840;2022-09-27T03:15:24;11.20;99.90
18083;DHT22;9168;51.194;6.840;2022-09-27T03:17:51;11.20;99.90
18083;DHT22;9168;51.194;6.840;2022-09-27T03:20:19;11.20;99.90
18083;DHT22;9168;51.194;6.840;2022-09-27T03:22:46;11.20;99.90
18083;DHT22;9168;51.194;6.840;2022-09-27T03:25:13;11.10;99.90
18083;DHT22;9168;51.194;6.840;2022-09-27T03:27:40;11.10;99.90
18083;DHT22;9168;51.194;6.840;2022-09-27T03:30:08;11.10;99.90
18083;DHT22;9168;51.194;6.840;2022-09-27T03:32:35;11.00;99.90
18083;DHT22;9168;51.194;6.840;2022-09-27T03:35:03;11.00;99.90
18083;DHT22;9168;51.194;6.840;2022-09-27T03:37:31;11.00;99.90
18083;DHT22;9168;51.194;6.840;2022-09-27T03:39:58;10.90;99.90
18083;DHT22;9168;51.194;6.840;2022-09-27T03:42:25;10.90;99.90
18083;DHT22;9168;51.194;6.840;2022-09-27T03:44:52;10.90;99.90
18083;DHT22;9168;51.194;6.840;2022-09-27T03:47:18;10.80;99.90
18083;DHT22;9168;51.194;6.840;2022-09-27T03:49:45;10.80;99.90
18083;DHT22;9168;51.194;6.840;2022-09-27T03:52:12;10.80;99.90
18083;DHT22;9168;51.194;6.840;2022-09-27T03:54:41;10.70;99.90
18083;DHT22;9168;51.194;6.840;2022-09-27T03:57:07;10.70;99.90
18083;DHT22;9168;51.194;6.840;2022-09-27T03:59:34;10.60;99.90
18083;DHT22;9168;51.194;6.840;2022-09-27T04:02:01;10.60;99.90
18083;DHT22;9168;51.194;6.840;2022-09-27T04:04:28;10.60;99.90
18083;DHT22;9168;51.194;6.840;2022-09-27T04:06:55;10.60;99.90
18083;DHT22;9168;51.194;6.840;2022-09-27T04:09:23;10.60;99.90
18083;DHT22;9168;51.194;6.840;2022-09-27T04:11:51;10.60;99.90
18083;DHT22;9168;51.194;6.840;2022-09-27T04:14:19;10.60;99.90
18083;DHT22;9168;51.194;6.840;2022-09-27T04:16:46;10.50;99.90
18083;DHT22;9168;51.194;6.840;2022-09-27T04:19:13;10.50;99.90
18083;DHT22;9168;51.194;6.840;2022-09-27T04:21:40;10.50;99.90
18083;DHT22;9168;51.194;6.840;2022-09-27T04:24:08;10.50;99.90
18083;DHT22;9168;51.194;6.840;2022-09-27T04:26:36;10.50;99.90
18083;DHT22;9168;51.194;6.840;2022-09-27T04:29:05;10.40;99.90
18083;DHT22;9168;51.194;6.840;2022-09-27T04:31:34;10.40;99.90
18083;DHT22;9168;51.194;6.840;2022-09-27T04:34:01;10.30;99.90
18083;DHT22;9168;51.194;6.840;2022-09-27T04:36:28;10.40;99.90
18083;DHT22;9168;51.194;6.840;2022-09-27T04:38:55;10.40;99.90
18083;DHT22;9168;51.194;6.840;2022-09-27T04:41:23;10.40;99.90
18083;DHT22;9168;51.194;6.840;2022-09-27T04:43:50;10.40;99.90
18083;DHT22;9168;51.194;6.840;2022-09-27T04:46:19;10.40;99.90
18083;DHT22;9168;51.194;6.840;2022-09-27T04:48:46;10.40;99.90
18083;DHT22;9168;51.194;6.840;2022-09-27T04:51:13;10.40;99.90
18083;DHT22;9168;51.194;6.840;2022-09-27T04:53:40;10.30;99.90
18083;DHT22;9168;51.194;6.840;2022-09-27T04:56:07;10.30;99.90
18083;DHT22;9168;51.194;6.840;2022-09-27T04:58:34;10.30;99.90
18083;DHT22;9168;51.194;6.840;2022-09-27T05:01:01;10.40;99.90
18083;DHT22;9168;51.194;6.840;2022-09-27T05:03:30;10.40;99.90
18083;DHT22;9168;51.194;6.840;2022-09-27T05:05:57;10.40;99.90
18083;DHT22;9168;51.194;6.840;2022-09-27T05:08:25;10.40;99.90
18083;DHT22;9168;51.194;6.840;2022-09-27T05:10:53;10.40;99.90
18083;DHT22;9168;51.194;6.840;2022-09-27T05:13:20;10.30;99.90
18083;DHT22;9168;51.194;6.840;2022-09-27T05:15:48;10.30;99.90
18083;DHT22;9168;51.194;6.840;2022-09-27T05:18:15;10.30;99.90
18083;DHT22;9168;51.194;6.840;2022-09-27T05:20:44;10.20;99.90
18083;DHT22;9168;51.194;6.840;2022-09-27T05:23:10;10.20;99.90
18083;DHT22;9168;51.194;6.840;2022-09-27T05:25:37;10.10;99.90
18083;DHT22;9168;51.194;6.840;2022-09-27T05:28:04;10.20;99.90
18083;DHT22;9168;51.194;6.840;2022-09-27T05:30:31;10.20;99.90
18083;DHT22;9168;51.194;6.840;2022-09-27T05:32:58;10.20;99.90
18083;DHT22;9168;51.194;6.840;2022-09-27T05:35:25;10.20;99.90
18083;DHT22;9168;51.194;6.840;2022-09-27T05:37:55;10.30;99.90
18083;DHT22;9168;51.194;6.840;2022-09-27T05:40:22;10.30;99.90
18083;DHT22;9168;51.194;6.840;2022-09-27T05:42:50;10.30;99.90
18083;DHT22;9168;51.194;6.840;2022-09-27T05:45:19;10.20;99.90
18083;DHT22;9168;51.194;6.840;2022-09-27T05:47:52;10.30;99.90
18083;DHT22;9168;51.194;6.840;2022-09-27T05:50:19;10.30;99.90
18083;DHT22;9168;51.194;6.840;2022-09-27T05:52:46;10.30;99.90
18083;DHT22;9168;51.194;6.840;2022-09-27T05:55:15;10.30;99.90
18083;DHT22;9168;51.194;6.840;2022-09-27T05:57:42;10.20;99.90
18083;DHT22;9168;51.194;6.840;2022-09-27T06:00:18;10.30;99.90
18083;DHT22;9168;51.194;6.840;2022-09-27T06:02:52;10.20;99.90
18083;DHT22;9168;51.194;6.840;2022-09-27T06:05:19;10.30;99.90
18083;DHT22;9168;51.194;6.840;2022-09-27T06:07:46;10.30;99.90
18083;DHT22;9168;51.194;6.840;2022-09-27T06:10:15;10.30;99.90
18083;DHT22;9168;51.194;6.840;2022-09-27T06:12:42;10.30;99.90
18083;DHT22;9168;51.194;6.840;2022-09-27T06:15:10;10.40;99.90
18083;DHT22;9168;51.194;6.840;2022-09-27T06:17:36;10.40;99.90
18083;DHT22;9168;51.194;6.840;2022-09-27T06:20:04;10.40;99.90
18083;DHT22;9168;51.194;6.840;2022-09-27T06:22:32;10.30;99.90
18083;DHT22;9168;51.194;6.840;2022-09-27T06:24:59;10.30;99.90
18083;DHT22;9168;51.194;6.840;2022-09-27T06:27:27;10.40;99.90
18083;DHT22;9168;51.194;6.840;2022-09-27T06:29:54;10.40;99.90
18083;DHT22;9168;51.194;6.840;2022-09-27T06:32:21;10.50;99.90
18083;DHT22;9168;51.194;6.840;2022-09-27T06:34:48;10.50;99.90
18083;DHT22;9168;51.194;6.840;2022-09-27T06:37:15;10.50;99.90
18083;DHT22;9168;51.194;6.840;2022-09-27T06:39:42;10.50;99.90
18083;DHT22;9168;51.194;6.840;2022-09-27T06:42:08;10.40;99.90
18083;DHT22;9168;51.194;6.840;2022-09-27T06:44:37;10.30;99.90
18083;DHT22;9168;51.194;6.840;2022-09-27T06:47:04;10.40;99.90
18083;DHT22;9168;51.194;6.840;2022-09-27T06:49:31;10.40;99.90
18083;DHT22;9168;51.194;6.840;2022-09-27T06:51:58;10.30;99.90
18083;DHT22;9168;51.194;6.840;2022-09-27T06:54:25;10.30;99.90
18083;DHT22;9168;51.194;6.840;2022-09-27T06:56:51;10.40;99.90
18083;DHT22;9168;51.194;6.840;2022-09-27T06:59:18;10.40;99.90
18083;DHT22;9168;51.194;6.840;2022-09-27T07:02:04;10.50;99.90
18083;DHT22;9168;51.194;6.840;2022-09-27T07:04:31;10.60;99.90
18083;DHT22;9168;51.194;6.840;2022-09-27T07:06:58;10.60;99.90
18083;DHT22;9168;51.194;6.840;2022-09-27T07:09:25;10.50;99.90
18083;DHT22;9168;51.194;6.840;2022-09-27T07:11:52;10.50;99.90
18083;DHT22;9168;51.194;6.840;2022-09-27T07:14:19;10.50;99.90
18083;DHT22;9168;51.194;6.840;2022-09-27T07:16:46;10.50;99.90
18083;DHT22;9168;51.194;6.840;2022-09-27T07:19:14;10.50;99.90
18083;DHT22;9168;51.194;6.840;2022-09-27T07:21:42;10.50;99.90
18083;DHT22;9168;51.194;6.840;2022-09-27T07:24:09;10.50;99.90
18083;DHT22;9168;51.194;6.840;2022-09-27T07:26:36;10.50;99.90
18083;DHT22;9168;51.194;6.840;2022-09-27T07:29:03;10.50;99.90
18083;DHT22;9168;51.194;6.840;2022-09-27T07:31:30;10.50;99.90
18083;DHT22;9168;51.194;6.840;2022-09-27T07:33:59;10.50;99.90
18083;DHT22;9168;51.194;6.840;2022-09-27T07:36:27;10.50;99.90
18083;DHT22;9168;51.194;6.840;2022-09-27T07:38:57;10.50;99.90
18083;DHT22;9168;51.194;6.840;2022-09-27T07:41:24;10.50;99.90
18083;DHT22;9168;51.194;6.840;2022-09-27T07:43:51;10.50;99.90
18083;DHT22;9168;51.194;6.840;2022-09-27T07:46:18;10.50;99.90
18083;DHT22;9168;51.194;6.840;2022-09-27T07:48:45;10.40;99.90
18083;DHT22;9168;51.194;6.840;2022-09-27T07:51:13;10.40;99.90
18083;DHT22;9168;51.194;6.840;2022-09-27T07:53:42;10.50;99.90
18083;DHT22;9168;51.194;6.840;2022-09-27T07:56:09;10.50;99.90
18083;DHT22;9168;51.194;6.840;2022-09-27T07:58:36;10.50;99.90
18083;DHT22;9168;51.194;6.840;2022-09-27T08:01:05;10.50;99.90
18083;DHT22;9168;51.194;6.840;2022-09-27T08:03:31;10.60;99.90
18083;DHT22;9168;51.194;6.840;2022-09-27T08:06:01;10.60;99.90
18083;DHT22;9168;51.194;6.840;2022-09-27T08:08:28;10.60;99.90
18083;DHT22;9168;51.194;6.840;2022-09-27T08:10:56;10.70;99.90
18083;DHT22;9168;51.194;6.840;2022-09-27T08:13:23;10.70;99.90
18083;DHT22;9168;51.194;6.840;2022-09-27T08:15:50;10.70;99.90
18083;DHT22;9168;51.194;6.840;2022-09-27T08:18:17;10.70;99.90
18083;DHT22;9168;51.194;6.840;2022-09-27T08:20:46;10.80;99.90
18083;DHT22;9168;51.194;6.840;2022-09-27T08:23:13;10.80;99.90
18083;DHT22;9168;51.194;6.840;2022-09-27T08:25:40;10.80;99.90
18083;DHT22;9168;51.194;6.840;2022-09-27T08:28:09;10.90;99.90
18083;DHT22;9168;51.194;6.840;2022-09-27T08:30:36;10.90;99.90
18083;DHT22;9168;51.194;6.840;2022-09-27T08:33:02;10.90;99.90
18083;DHT22;9168;51.194;6.840;2022-09-27T08:35:31;10.90;99.90
18083;DHT22;9168;51.194;6.840;2022-09-27T08:37:59;10.90;99.90
18083;DHT22;9168;51.194;6.840;2022-09-27T08:40:30;10.90;99.90
18083;DHT22;9168;51.194;6.840;2022-09-27T08:43:07;10.90;99.90
18083;DHT22;9168;51.194;6.840;2022-09-27T08:45:44;10.90;99.90
18083;DHT22;9168;51.194;6.840;2022-09-27T08:48:15;11.00;99.90
18083;DHT22;9168;51.194;6.840;2022-09-27T08:50:43;11.00;99.90
18083;DHT22;9168;51.194;6.840;2022-09-27T08:53:19;11.00;99.90
18083;DHT22;9168;51.194;6.840;2022-09-27T08:55:49;11.10;99.90
18083;DHT22;9168;51.194;6.840;2022-09-27T08:58:22;11.10;99.90
18083;DHT22;9168;51.194;6.840;2022-09-27T09:00:54;11.20;99.90
18083;DHT22;9168;51.194;6.840;2022-09-27T09:03:26;11.20;99.90
18083;DHT22;9168;51.194;6.840;2022-09-27T09:06:09;11.20;99.90
18083;DHT22;9168;51.194;6.840;2022-09-27T09:08:46;11.20;99.90
18083;DHT22;9168;51.194;6.840;2022-09-27T09:11:24;11.10;99.90
18083;DHT22;9168;51.194;6.840;2022-09-27T09:14:25;11.10;99.90
18083;DHT22;9168;51.194;6.840;2022-09-27T09:17:05;11.20;99.90
18083;DHT22;9168;51.194;6.840;2022-09-27T09:19:46;11.20;99.90
18083;DHT22;9168;51.194;6.840;2022-09-27T09:22:28;11.30;99.90
18083;DHT22;9168;51.194;6.840;2022-09-27T09:25:22;11.40;99.90
18083;DHT22;9168;51.194;6.840;2022-09-27T09:28:02;11.50;99.90
18083;DHT22;9168;51.194;6.840;2022-09-27T09:30:39;11.40;99.90
18083;DHT22;9168;51.194;6.840;2022-09-27T09:33:20;11.50;99.90
18083;DHT22;9168;51.194;6.840;2022-09-27T09:35:53;11.50;99.90
18083;DHT22;9168;51.194;6.840;2022-09-27T09:38:28;11.50;99.90
18083;DHT22;9168;51.194;6.840;2022-09-27T09:41:04;11.50;99.90
18083;DHT22;9168;51.194;6.840;2022-09-27T09:43:34;11.60;99.90
18083;DHT22;9168;51.194;6.840;2022-09-27T09:46:09;11.70;99.90
18083;DHT22;9168;51.194;6.840;2022-09-27T09:48:42;11.80;99.90
18083;DHT22;9168;51.194;6.840;2022-09-27T09:51:13;11.80;99.90
18083;DHT22;9168;51.194;6.840;2022-09-27T09:53:46;11.90;99.90
18083;DHT22;9168;51.194;6.840;2022-09-27T09:56:22;12.00;99.90
18083;DHT22;9168;51.194;6.840;2022-09-27T09:58:53;12.00;99.90
18083;DHT22;9168;51.194;6.840;2022-09-27T10:01:24;12.10;99.90
18083;DHT22;9168;51.194;6.840;2022-09-27T10:03:54;12.40;99.90
18083;DHT22;9168;51.194;6.840;2022-09-27T10:06:23;12.50;99.90
18083;DHT22;9168;51.194;6.840;2022-09-27T10:08:50;12.60;99.90
18083;DHT22;9168;51.194;6.840;2022-09-27T10:11:21;12.70;99.90
18083;DHT22;9168;51.194;6.840;2022-09-27T10:13:49;12.80;99.90
18083;DHT22;9168;51.194;6.840;2022-09-27T10:16:18;12.90;99.90
18083;DHT22;9168;51.194;6.840;2022-09-27T10:18:46;12.90;99.90
18083;DHT22;9168;51.194;6.840;2022-09-27T10:21:19;12.80;99.90
18083;DHT22;9168;51.194;6.840;2022-09-27T10:24:05;12.70;99.90
18083;DHT22;9168;51.194;6.840;2022-09-27T10:26:34;12.60;99.90
18083;DHT22;9168;51.194;6.840;2022-09-27T10:29:14;12.50;99.90
18083;DHT22;9168;51.194;6.840;2022-09-27T10:31:43;12.40;99.90
18083;DHT22;9168;51.194;6.840;2022-09-27T10:34:19;12.30;99.90
18083;DHT22;9168;51.194;6.840;2022-09-27T10:37:01;12.20;99.90
18083;DHT22;9168;51.194;6.840;2022-09-27T10:39:28;12.20;99.90
18083;DHT22;9168;51.194;6.840;2022-09-27T10:41:55;12.20;99.90
18083;DHT22;9168;51.194;6.840;2022-09-27T10:44:25;12.20;99.90
18083;DHT22;9168;51.194;6.840;2022-09-27T10:46:54;12.20;99.90
18083;DHT22;9168;51.194;6.840;2022-09-27T10:49:25;12.10;99.90
18083;DHT22;9168;51.194;6.840;2022-09-27T10:51:56;12.20;99.90
18083;DHT22;9168;51.194;6.840;2022-09-27T10:54:26;12.20;99.90
18083;DHT22;9168;51.194;6.840;2022-09-27T10:56:57;12.20;99.90
18083;DHT22;9168;51.194;6.840;2022-09-27T10:59:26;12.10;99.90
18083;DHT22;9168;51.194;6.840;2022-09-27T11:01:57;12.10;99.90
18083;DHT22;9168;51.194;6.840;2022-09-27T11:04:29;12.10;99.90
18083;DHT22;9168;51.194;6.840;2022-09-27T11:07:12;11.90;99.90
18083;DHT22;9168;51.194;6.840;2022-09-27T11:09:45;12.00;99.90
18083;DHT22;9168;51.194;6.840;2022-09-27T11:12:13;12.00;99.90
18083;DHT22;9168;51.194;6.840;2022-09-27T11:14:44;12.00;99.90
18083;DHT22;9168;51.194;6.840;2022-09-27T11:17:16;12.10;99.90
18083;DHT22;9168;51.194;6.840;2022-09-27T11:19:55;12.20;99.90
18083;DHT22;9168;51.194;6.840;2022-09-27T11:22:40;12.20;99.90
18083;DHT22;9168;51.194;6.840;2022-09-27T11:25:17;12.30;99.90
18083;DHT22;9168;51.194;6.840;2022-09-27T11:27:58;12.40;99.90
18083;DHT22;9168;51.194;6.840;2022-09-27T11:30:30;12.50;99.90
18083;DHT22;9168;51.194;6.840;2022-09-27T11:33:19;12.60;99.90
18083;DHT22;9168;51.194;6.840;2022-09-27T11:35:56;12.70;99.90
18083;DHT22;9168;51.194;6.840;2022-09-27T11:38:30;12.90;99.90
18083;DHT22;9168;51.194;6.840;2022-09-27T11:41:09;13.10;99.90
18083;DHT22;9168;51.194;6.840;2022-09-27T11:44:01;13.10;99.90
18083;DHT22;9168;51.194;6.840;2022-09-27T11:46:33;13.20;99.90
18083;DHT22;9168;51.194;6.840;2022-09-27T11:49:22;13.20;99.90
18083;DHT22;9168;51.194;6.840;2022-09-27T11:52:10;13.10;99.90
18083;DHT22;9168;51.194;6.840;2022-09-27T11:55:10;13.00;99.90
18083;DHT22;9168;51.194;6.840;2022-09-27T11:57:43;12.90;99.90
18083;DHT22;9168;51.194;6.840;2022-09-27T12:00:18;13.00;99.90
18083;DHT22;9168;51.194;6.840;2022-09-27T12:05:59;13.10;99.90
18083;DHT22;9168;51.194;6.840;2022-09-27T12:08:39;13.20;99.90
18083;DHT22;9168;51.194;6.840;2022-09-27T12:11:15;13.20;99.90
18083;DHT22;9168;51.194;6.840;2022-09-27T12:13:47;13.10;99.90
18083;DHT22;9168;51.194;6.840;2022-09-27T12:16:16;13.10;99.90
18083;DHT22;9168;51.194;6.840;2022-09-27T12:18:44;13.10;99.90
18083;DHT22;9168;51.194;6.840;2022-09-27T12:21:11;13.00;99.90
18083;DHT22;9168;51.194;6.840;2022-09-27T12:23:40;12.90;99.90
18083;DHT22;9168;51.194;6.840;2022-09-27T12:26:13;12.80;99.90
18083;DHT22;9168;51.194;6.840;2022-09-27T12:28:47;12.80;99.90
18083;DHT22;9168;51.194;6.840;2022-09-27T12:31:19;12.90;99.90
18083;DHT22;9168;51.194;6.840;2022-09-27T12:33:53;12.80;99.90
18083;DHT22;9168;51.194;6.840;2022-09-27T12:36:27;12.80;99.90
18083;DHT22;9168;51.194;6.840;2022-09-27T12:39:01;12.80;99.90
18083;DHT22;9168;51.194;6.840;2022-09-27T12:41:36;12.80;99.90
18083;DHT22;9168;51.194;6.840;2022-09-27T12:44:04;12.80;99.90
18083;DHT22;9168;51.194;6.840;2022-09-27T12:46:36;12.80;99.90
18083;DHT22;9168;51.194;6.840;2022-09-27T12:49:11;12.80;99.90
18083;DHT22;9168;51.194;6.840;2022-09-27T12:51:43;12.70;99.90
18083;DHT22;9168;51.194;6.840;2022-09-27T12:54:40;12.70;99.90
18083;DHT22;9168;51.194;6.840;2022-09-27T12:57:22;12.70;99.90
18083;DHT22;9168;51.194;6.840;2022-09-27T13:00:03;12.60;99.90
18083;DHT22;9168;51.194;6.840;2022-09-27T13:03:10;12.50;99.90
18083;DHT22;9168;51.194;6.840;2022-09-27T13:09:09;12.30;99.90
18083;DHT22;9168;51.194;6.840;2022-09-27T13:11:44;12.30;99.90
18083;DHT22;9168;51.194;6.840;2022-09-27T13:14:17;12.20;99.90
18083;DHT22;9168;51.194;6.840;2022-09-27T13:16:47;12.10;99.90
18083;DHT22;9168;51.194;6.840;2022-09-27T13:19:39;12.20;99.90
18083;DHT22;9168;51.194;6.840;2022-09-27T13:22:08;12.20;99.90
18083;DHT22;9168;51.194;6.840;2022-09-27T13:24:44;12.20;99.90
18083;DHT22;9168;51.194;6.840;2022-09-27T13:27:44;12.20;99.90
18083;DHT22;9168;51.194;6.840;2022-09-27T13:30:45;12.20;99.90
18083;DHT22;9168;51.194;6.840;2022-09-27T13:33:39;12.30;99.90
18083;DHT22;9168;51.194;6.840;2022-09-27T13:36:26;12.30;99.90
18083;DHT22;9168;51.194;6.840;2022-09-27T13:39:16;12.40;99.90
18083;DHT22;9168;51.194;6.840;2022-09-27T13:42:11;12.50;99.90
18083;DHT22;9168;51.194;6.840;2022-09-27T13:44:50;12.60;99.90
18083;DHT22;9168;51.194;6.840;2022-09-27T13:47:25;12.60;99.90
18083;DHT22;9168;51.194;6.840;2022-09-27T13:50:00;12.60;99.90
18083;DHT22;9168;51.194;6.840;2022-09-27T13:52:32;12.60;99.90
18083;DHT22;9168;51.194;6.840;2022-09-27T13:55:03;12.70;99.90
18083;DHT22;9168;51.194;6.840;2022-09-27T13:57:45;12.80;99.90
18083;DHT22;9168;51.194;6.840;2022-09-27T14:00:16;12.80;99.90
18083;DHT22;9168;51.194;6.840;2022-09-27T14:02:53;12.90;99.90
18083;DHT22;9168;51.194;6.840;2022-09-27T14:05:25;12.90;99.90
18083;DHT22;9168;51.194;6.840;2022-09-27T14:07:54;13.00;99.90
18083;DHT22;9168;51.194;6.840;2022-09-27T14:10:24;13.00;99.90
18083;DHT22;9168;51.194;6.840;2022-09-27T14:12:52;13.00;99.90
18083;DHT22;9168;51.194;6.840;2022-09-27T14:15:22;13.00;99.90
18083;DHT22;9168;51.194;6.840;2022-09-27T14:17:52;13.00;99.90
18083;DHT22;9168;51.194;6.840;2022-09-27T14:20:35;13.20;99.90
18083;DHT22;9168;51.194;6.840;2022-09-27T14:23:03;13.30;99.90
18083;DHT22;9168;51.194;6.840;2022-09-27T14:25:30;13.30;99.90
18083;DHT22;9168;51.194;6.840;2022-09-27T14:27:57;13.30;99.90
18083;DHT22;9168;51.194;6.840;2022-09-27T14:30:26;13.30;99.90
18083;DHT22;9168;51.194;6.840;2022-09-27T14:32:56;13.30;99.90
18083;DHT22;9168;51.194;6.840;2022-09-27T14:35:28;13.30;99.90
18083;DHT22;9168;51.194;6.840;2022-09-27T14:38:14;13.20;99.90
18083;DHT22;9168;51.194;6.840;2022-09-27T14:40:43;13.10;99.90
18083;DHT22;9168;51.194;6.840;2022-09-27T14:43:16;13.00;99.90
18083;DHT22;9168;51.194;6.840;2022-09-27T14:45:45;12.80;99.90
18083;DHT22;9168;51.194;6.840;2022-09-27T14:48:25;12.80;99.90
18083;DHT22;9168;51.194;6.840;2022-09-27T14:50:59;12.80;99.90
18083;DHT22;9168;51.194;6.840;2022-09-27T14:53:30;12.80;99.90
18083;DHT22;9168;51.194;6.840;2022-09-27T14:55:59;12.80;99.90
18083;DHT22;9168;51.194;6.840;2022-09-27T14:58:26;12.70;99.90
18083;DHT22;9168;51.194;6.840;2022-09-27T15:00:55;12.70;99.90
18083;DHT22;9168;51.194;6.840;2022-09-27T15:03:28;12.60;99.90
18083;DHT22;9168;51.194;6.840;2022-09-27T15:05:57;12.50;99.90
18083;DHT22;9168;51.194;6.840;2022-09-27T15:08:27;12.40;99.90
18083;DHT22;9168;51.194;6.840;2022-09-27T15:10:58;12.40;99.90
18083;DHT22;9168;51.194;6.840;2022-09-27T15:13:25;12.40;99.90
18083;DHT22;9168;51.194;6.840;2022-09-27T15:15:53;12.30;99.90
18083;DHT22;9168;51.194;6.840;2022-09-27T15:18:33;12.30;99.90
18083;DHT22;9168;51.194;6.840;2022-09-27T15:21:06;12.30;99.90
18083;DHT22;9168;51.194;6.840;2022-09-27T15:23:35;12.20;99.90
18083;DHT22;9168;51.194;6.840;2022-09-27T15:26:07;12.10;99.90
18083;DHT22;9168;51.194;6.840;2022-09-27T15:28:36;12.10;99.90
18083;DHT22;9168;51.194;6.840;2022-09-27T15:31:04;12.10;99.90
18083;DHT22;9168;51.194;6.840;2022-09-27T15:33:34;12.10;99.90
18083;DHT22;9168;51.194;6.840;2022-09-27T15:36:03;12.10;99.90
18083;DHT22;9168;51.194;6.840;2022-09-27T15:38:31;12.10;99.90
18083;DHT22;9168;51.194;6.840;2022-09-27T15:41:12;12.20;99.90
18083;DHT22;9168;51.194;6.840;2022-09-27T15:43:44;12.10;99.90
18083;DHT22;9168;51.194;6.840;2022-09-27T15:46:33;12.10;99.90
18083;DHT22;9168;51.194;6.840;2022-09-27T15:49:26;12.10;99.90
18083;DHT22;9168;51.194;6.840;2022-09-27T15:51:56;12.00;99.90
18083;DHT22;9168;51.194;6.840;2022-09-27T15:56:30;12.00;99.90
18083;DHT22;9168;51.194;6.840;2022-09-27T15:58:58;11.90;99.90
18083;DHT22;9168;51.194;6.840;2022-09-27T16:01:25;11.90;99.90
18083;DHT22;9168;51.194;6.840;2022-09-27T16:03:52;11.90;99.90
18083;DHT22;9168;51.194;6.840;2022-09-27T16:06:19;11.90;99.90
18083;DHT22;9168;51.194;6.840;2022-09-27T16:08:48;11.80;99.90
18083;DHT22;9168;51.194;6.840;2022-09-27T16:11:15;11.80;99.90
18083;DHT22;9168;51.194;6.840;2022-09-27T16:13:44;11.70;99.90
18083;DHT22;9168;51.194;6.840;2022-09-27T16:16:13;11.70;99.90
18083;DHT22;9168;51.194;6.840;2022-09-27T16:18:41;11.70;99.90
18083;DHT22;9168;51.194;6.840;2022-09-27T16:21:08;11.70;99.90
18083;DHT22;9168;51.194;6.840;2022-09-27T16:23:35;11.60;99.90